Hub


Voltar

 INFORMAÇÕES METEOROLÓGICAS

METAR FOR GOOY


ADDS - METARS form results

(2342 UTC 19 August 2019)
Data provider http://aviationweather.gov/metar/data/
 
Forecast for: GOOY (DAKAR/YOFF , SN)
Text: TAF GOOY 192330Z 2000/2106 28008KT 8000 SCT013
Forecast period: 0000 UTC 20 August 2019 to 0600 UTC 21 August 2019
Forecast type: FROM: standard forecast or significant change
Winds: from the W (280 degrees) at 9 MPH (8 knots; 4.1 m/s)
Visibility: 5 miles (8 km)
Ceiling: at least 12,000 feet AGL
Clouds: scattered clouds at 1300 feet AGL
Weather: no significant weather forecast for this period


 MAPA DO AEROPORTO


 INFORMAÇÕES DA PISTA

Pista 03 Tamanho da pista 4921 ft Largura da pista 98 ft
Elevação da pista 63 ft Ranhura da pista 0 ft Proa da pista 23
Pista 21 Tamanho da pista 4921 ft Largura da pista 98 ft
Elevação da pista 56 ft Ranhura da pista 0 ft Proa da pista 203
Pista 18 Tamanho da pista 11450 ft Largura da pista 148 ft
Elevação da pista 64 ft Ranhura da pista 525 ft Proa da pista 173
Pista 36 Tamanho da pista 11450 ft Largura da pista 148 ft
Elevação da pista 75 ft Ranhura da pista 0 ft Proa da pista 353

 FREQUÊNCIAS DO AEROPORTO

Tipo APP Nome DAKAR CON Frequência 120.5 MHZ
Tipo INFO Nome DAKAR INFO Frequência 129.5 MHZ
Tipo INFO Nome DAKAR INFO Frequência 345.2 MHZ
Tipo TWR Nome DAKAR TWR Frequência 118.1 MHZ

 AUXÍLIOS DE NAVEGAÇÃO PRÓXIMOS AO AEROPORTO

Tipo NDB Nome Dakar Frequência 323 KHZ
Tipo VOR-DME Nome Dakar Frequência 113100 KHZ